sensor_id;sensor_type;location;lat;lon;timestamp;temperature;humidity
2453;DHT22;63678;47.994;7.854;2023-04-08T00:02:07;7.90;99.90
2453;DHT22;63678;47.994;7.854;2023-04-08T00:04:39;7.90;99.90
2453;DHT22;63678;47.994;7.854;2023-04-08T00:07:12;7.80;99.90
2453;DHT22;63678;47.994;7.854;2023-04-08T00:12:17;7.90;99.90
2453;DHT22;63678;47.994;7.854;2023-04-08T00:14:50;7.90;99.90
2453;DHT22;63678;47.994;7.854;2023-04-08T00:17:22;8.00;99.90
2453;DHT22;63678;47.994;7.854;2023-04-08T00:19:54;8.10;99.90
2453;DHT22;63678;47.994;7.854;2023-04-08T00:22:27;8.10;99.90
2453;DHT22;63678;47.994;7.854;2023-04-08T00:24:59;8.00;99.90
2453;DHT22;63678;47.994;7.854;2023-04-08T00:27:35;8.00;99.90
2453;DHT22;63678;47.994;7.854;2023-04-08T00:30:07;8.00;99.90
2453;DHT22;63678;47.994;7.854;2023-04-08T00:35:17;8.10;99.90
2453;DHT22;63678;47.994;7.854;2023-04-08T00:37:50;8.10;99.90
2453;DHT22;63678;47.994;7.854;2023-04-08T00:42:56;8.50;99.90
2453;DHT22;63678;47.994;7.854;2023-04-08T00:45:32;8.20;99.90
2453;DHT22;63678;47.994;7.854;2023-04-08T00:48:05;8.10;99.90
2453;DHT22;63678;47.994;7.854;2023-04-08T00:50:38;7.90;99.90
2453;DHT22;63678;47.994;7.854;2023-04-08T00:53:11;7.90;99.90
2453;DHT22;63678;47.994;7.854;2023-04-08T00:58:38;7.60;99.90
2453;DHT22;63678;47.994;7.854;2023-04-08T01:01:21;7.60;99.90
2453;DHT22;63678;47.994;7.854;2023-04-08T01:04:16;7.50;99.90
2453;DHT22;63678;47.994;7.854;2023-04-08T01:07:08;7.40;99.90
2453;DHT22;63678;47.994;7.854;2023-04-08T01:10:14;7.30;99.90
2453;DHT22;63678;47.994;7.854;2023-04-08T01:12:58;7.30;99.90
2453;DHT22;63678;47.994;7.854;2023-04-08T01:15:35;7.30;99.90
2453;DHT22;63678;47.994;7.854;2023-04-08T01:18:12;7.30;99.90
2453;DHT22;63678;47.994;7.854;2023-04-08T01:20:46;7.30;99.90
2453;DHT22;63678;47.994;7.854;2023-04-08T01:23:43;7.20;99.90
2453;DHT22;63678;47.994;7.854;2023-04-08T01:26:23;7.20;99.90
2453;DHT22;63678;47.994;7.854;2023-04-08T01:28:59;7.10;99.90
2453;DHT22;63678;47.994;7.854;2023-04-08T01:31:35;7.00;99.90
2453;DHT22;63678;47.994;7.854;2023-04-08T01:34:09;7.00;99.90
2453;DHT22;63678;47.994;7.854;2023-04-08T01:36:44;6.90;99.90
2453;DHT22;63678;47.994;7.854;2023-04-08T01:39:18;6.90;99.90
2453;DHT22;63678;47.994;7.854;2023-04-08T01:41:53;6.80;99.90
2453;DHT22;63678;47.994;7.854;2023-04-08T01:44:28;6.80;99.90
2453;DHT22;63678;47.994;7.854;2023-04-08T01:47:02;6.90;99.90
2453;DHT22;63678;47.994;7.854;2023-04-08T01:49:35;7.00;99.90
2453;DHT22;63678;47.994;7.854;2023-04-08T01:52:08;6.90;99.90
2453;DHT22;63678;47.994;7.854;2023-04-08T01:57:21;7.00;99.90
2453;DHT22;63678;47.994;7.854;2023-04-08T01:59:59;7.00;99.90
2453;DHT22;63678;47.994;7.854;2023-04-08T02:02:35;7.10;99.90
2453;DHT22;63678;47.994;7.854;2023-04-08T02:05:09;7.20;99.90
2453;DHT22;63678;47.994;7.854;2023-04-08T02:07:41;7.20;99.90
2453;DHT22;63678;47.994;7.854;2023-04-08T02:10:14;7.20;99.90
2453;DHT22;63678;47.994;7.854;2023-04-08T02:12:47;7.20;99.90
2453;DHT22;63678;47.994;7.854;2023-04-08T02:15:19;7.20;99.90
2453;DHT22;63678;47.994;7.854;2023-04-08T02:18:02;7.20;99.90
2453;DHT22;63678;47.994;7.854;2023-04-08T02:20:53;7.20;99.90
2453;DHT22;63678;47.994;7.854;2023-04-08T02:23:29;7.30;99.90
2453;DHT22;63678;47.994;7.854;2023-04-08T02:26:07;7.40;99.90
2453;DHT22;63678;47.994;7.854;2023-04-08T02:28:47;7.40;99.90
2453;DHT22;63678;47.994;7.854;2023-04-08T02:31:20;7.50;99.90
2453;DHT22;63678;47.994;7.854;2023-04-08T02:33:55;7.40;99.90
2453;DHT22;63678;47.994;7.854;2023-04-08T02:36:31;7.40;99.90
2453;DHT22;63678;47.994;7.854;2023-04-08T02:39:07;7.50;99.90
2453;DHT22;63678;47.994;7.854;2023-04-08T02:46:44;7.70;99.90
2453;DHT22;63678;47.994;7.854;2023-04-08T02:49:17;7.70;99.90
2453;DHT22;63678;47.994;7.854;2023-04-08T02:51:49;7.70;99.90
2453;DHT22;63678;47.994;7.854;2023-04-08T02:54:22;7.70;99.90
2453;DHT22;63678;47.994;7.854;2023-04-08T02:56:54;7.70;99.90
2453;DHT22;63678;47.994;7.854;2023-04-08T02:59:26;7.70;99.90
2453;DHT22;63678;47.994;7.854;2023-04-08T03:01:58;7.70;99.90
2453;DHT22;63678;47.994;7.854;2023-04-08T03:07:04;7.70;99.90
2453;DHT22;63678;47.994;7.854;2023-04-08T03:09:39;7.80;99.90
2453;DHT22;63678;47.994;7.854;2023-04-08T03:12:12;7.70;99.90
2453;DHT22;63678;47.994;7.854;2023-04-08T03:14:44;7.70;99.90
2453;DHT22;63678;47.994;7.854;2023-04-08T03:17:16;7.70;99.90
2453;DHT22;63678;47.994;7.854;2023-04-08T03:19:48;7.70;99.90
2453;DHT22;63678;47.994;7.854;2023-04-08T03:22:21;7.60;99.90
2453;DHT22;63678;47.994;7.854;2023-04-08T03:24:55;7.60;99.90
2453;DHT22;63678;47.994;7.854;2023-04-08T03:27:27;7.70;99.90
2453;DHT22;63678;47.994;7.854;2023-04-08T03:29:59;7.70;99.90
2453;DHT22;63678;47.994;7.854;2023-04-08T03:32:32;7.60;99.90
2453;DHT22;63678;47.994;7.854;2023-04-08T03:35:05;7.60;99.90
2453;DHT22;63678;47.994;7.854;2023-04-08T03:40:10;7.60;99.90
2453;DHT22;63678;47.994;7.854;2023-04-08T03:45:16;7.60;99.90
2453;DHT22;63678;47.994;7.854;2023-04-08T03:47:48;7.60;99.90
2453;DHT22;63678;47.994;7.854;2023-04-08T03:55:26;7.50;99.90
2453;DHT22;63678;47.994;7.854;2023-04-08T04:03:04;8.00;99.90
2453;DHT22;63678;47.994;7.854;2023-04-08T04:05:38;7.90;99.90
2453;DHT22;63678;47.994;7.854;2023-04-08T04:13:16;7.70;99.90
2453;DHT22;63678;47.994;7.854;2023-04-08T04:18:21;7.70;99.90
2453;DHT22;63678;47.994;7.854;2023-04-08T04:23:26;7.60;99.90
2453;DHT22;63678;47.994;7.854;2023-04-08T04:28:31;7.60;99.90
2453;DHT22;63678;47.994;7.854;2023-04-08T04:31:04;7.60;99.90
2453;DHT22;63678;47.994;7.854;2023-04-08T04:33:36;7.70;99.90
2453;DHT22;63678;47.994;7.854;2023-04-08T04:36:08;7.60;99.90
2453;DHT22;63678;47.994;7.854;2023-04-08T04:38:40;7.60;99.90
2453;DHT22;63678;47.994;7.854;2023-04-08T04:43:46;8.40;99.90
2453;DHT22;63678;47.994;7.854;2023-04-08T04:46:18;8.00;99.90
2453;DHT22;63678;47.994;7.854;2023-04-08T04:48:51;7.80;99.90
2453;DHT22;63678;47.994;7.854;2023-04-08T04:51:23;7.60;99.90
2453;DHT22;63678;47.994;7.854;2023-04-08T04:53:56;7.50;99.90
2453;DHT22;63678;47.994;7.854;2023-04-08T04:56:28;7.40;99.90
2453;DHT22;63678;47.994;7.854;2023-04-08T04:59:00;7.40;99.90
2453;DHT22;63678;47.994;7.854;2023-04-08T05:01:32;7.40;99.90
2453;DHT22;63678;47.994;7.854;2023-04-08T05:04:05;7.50;99.90
2453;DHT22;63678;47.994;7.854;2023-04-08T05:06:38;7.50;99.90
2453;DHT22;63678;47.994;7.854;2023-04-08T05:09:10;7.50;99.90
2453;DHT22;63678;47.994;7.854;2023-04-08T05:11:43;7.40;99.90
2453;DHT22;63678;47.994;7.854;2023-04-08T05:14:14;7.50;99.90
2453;DHT22;63678;47.994;7.854;2023-04-08T05:16:47;7.50;99.90
2453;DHT22;63678;47.994;7.854;2023-04-08T05:19:19;7.60;99.90
2453;DHT22;63678;47.994;7.854;2023-04-08T05:21:51;7.60;99.90
2453;DHT22;63678;47.994;7.854;2023-04-08T05:24:23;7.60;99.90
2453;DHT22;63678;47.994;7.854;2023-04-08T05:26:55;7.60;99.90
2453;DHT22;63678;47.994;7.854;2023-04-08T05:32:01;7.60;99.90
2453;DHT22;63678;47.994;7.854;2023-04-08T05:34:33;7.70;99.90
2453;DHT22;63678;47.994;7.854;2023-04-08T05:37:05;7.80;99.90
2453;DHT22;63678;47.994;7.854;2023-04-08T05:39:37;7.90;99.90
2453;DHT22;63678;47.994;7.854;2023-04-08T05:42:10;7.90;99.90
2453;DHT22;63678;47.994;7.854;2023-04-08T05:44:43;7.90;99.90
2453;DHT22;63678;47.994;7.854;2023-04-08T05:47:16;8.00;99.90
2453;DHT22;63678;47.994;7.854;2023-04-08T05:49:48;8.10;99.90
2453;DHT22;63678;47.994;7.854;2023-04-08T05:54:54;8.10;99.90
2453;DHT22;63678;47.994;7.854;2023-04-08T05:57:26;8.10;99.90
2453;DHT22;63678;47.994;7.854;2023-04-08T05:59:59;8.20;99.90
2453;DHT22;63678;47.994;7.854;2023-04-08T06:02:31;8.30;99.90
2453;DHT22;63678;47.994;7.854;2023-04-08T06:05:04;8.40;99.90
2453;DHT22;63678;47.994;7.854;2023-04-08T06:07:37;8.40;99.90
2453;DHT22;63678;47.994;7.854;2023-04-08T06:10:09;8.50;99.90
2453;DHT22;63678;47.994;7.854;2023-04-08T06:12:42;8.50;99.90
2453;DHT22;63678;47.994;7.854;2023-04-08T06:15:14;8.50;99.90
2453;DHT22;63678;47.994;7.854;2023-04-08T06:17:47;8.50;99.90
2453;DHT22;63678;47.994;7.854;2023-04-08T06:20:19;8.40;99.90
2453;DHT22;63678;47.994;7.854;2023-04-08T06:22:51;8.50;99.90
2453;DHT22;63678;47.994;7.854;2023-04-08T06:27:56;8.50;99.90
2453;DHT22;63678;47.994;7.854;2023-04-08T06:30:29;8.50;99.90
2453;DHT22;63678;47.994;7.854;2023-04-08T06:33:01;8.50;99.90
2453;DHT22;63678;47.994;7.854;2023-04-08T06:38:08;8.60;99.90
2453;DHT22;63678;47.994;7.854;2023-04-08T06:40:40;8.70;99.90
2453;DHT22;63678;47.994;7.854;2023-04-08T06:45:45;8.70;99.90
2453;DHT22;63678;47.994;7.854;2023-04-08T06:48:18;8.80;99.90
2453;DHT22;63678;47.994;7.854;2023-04-08T06:50:50;10.70;99.90
2453;DHT22;63678;47.994;7.854;2023-04-08T06:53:23;11.10;99.90
2453;DHT22;63678;47.994;7.854;2023-04-08T06:55:55;9.90;99.90
2453;DHT22;63678;47.994;7.854;2023-04-08T06:58:27;9.40;99.90
2453;DHT22;63678;47.994;7.854;2023-04-08T07:01:00;9.00;99.90
2453;DHT22;63678;47.994;7.854;2023-04-08T07:03:34;8.90;99.90
2453;DHT22;63678;47.994;7.854;2023-04-08T07:06:06;8.70;99.90
2453;DHT22;63678;47.994;7.854;2023-04-08T07:11:11;8.70;99.90
2453;DHT22;63678;47.994;7.854;2023-04-08T07:13:43;8.60;99.90
2453;DHT22;63678;47.994;7.854;2023-04-08T07:16:16;8.60;99.90
2453;DHT22;63678;47.994;7.854;2023-04-08T07:18:48;8.60;99.90
2453;DHT22;63678;47.994;7.854;2023-04-08T07:21:21;8.70;99.90
2453;DHT22;63678;47.994;7.854;2023-04-08T07:23:53;8.70;99.90
2453;DHT22;63678;47.994;7.854;2023-04-08T07:26:25;8.90;99.90
2453;DHT22;63678;47.994;7.854;2023-04-08T07:28:59;8.90;99.90
2453;DHT22;63678;47.994;7.854;2023-04-08T07:31:31;9.30;99.90
2453;DHT22;63678;47.994;7.854;2023-04-08T07:34:03;9.70;99.90
2453;DHT22;63678;47.994;7.854;2023-04-08T07:36:35;9.90;99.90
2453;DHT22;63678;47.994;7.854;2023-04-08T07:39:09;10.10;99.90
2453;DHT22;63678;47.994;7.854;2023-04-08T07:41:41;10.20;99.90
2453;DHT22;63678;47.994;7.854;2023-04-08T07:44:13;10.40;99.90
2453;DHT22;63678;47.994;7.854;2023-04-08T07:51:55;10.40;99.90
2453;DHT22;63678;47.994;7.854;2023-04-08T07:54:30;10.30;99.90
2453;DHT22;63678;47.994;7.854;2023-04-08T07:59:37;10.30;99.90
2453;DHT22;63678;47.994;7.854;2023-04-08T08:02:10;10.50;99.90
2453;DHT22;63678;47.994;7.854;2023-04-08T08:04:42;10.70;99.90
2453;DHT22;63678;47.994;7.854;2023-04-08T08:07:14;10.60;99.90
2453;DHT22;63678;47.994;7.854;2023-04-08T08:09:47;10.80;99.90
2453;DHT22;63678;47.994;7.854;2023-04-08T08:12:20;10.70;99.90
2453;DHT22;63678;47.994;7.854;2023-04-08T08:14:52;10.90;99.90
2453;DHT22;63678;47.994;7.854;2023-04-08T08:22:35;10.80;99.90
2453;DHT22;63678;47.994;7.854;2023-04-08T08:25:25;10.90;99.90
2453;DHT22;63678;47.994;7.854;2023-04-08T08:30:30;11.20;99.90
2453;DHT22;63678;47.994;7.854;2023-04-08T08:33:02;11.20;99.90
2453;DHT22;63678;47.994;7.854;2023-04-08T08:35:34;11.20;99.90
2453;DHT22;63678;47.994;7.854;2023-04-08T08:38:07;11.50;99.90
2453;DHT22;63678;47.994;7.854;2023-04-08T08:40:39;11.60;99.90
2453;DHT22;63678;47.994;7.854;2023-04-08T08:43:13;11.50;99.90
2453;DHT22;63678;47.994;7.854;2023-04-08T08:45:45;11.50;99.90
2453;DHT22;63678;47.994;7.854;2023-04-08T08:48:18;11.50;99.90
2453;DHT22;63678;47.994;7.854;2023-04-08T08:50:51;11.80;99.90
2453;DHT22;63678;47.994;7.854;2023-04-08T08:53:29;11.90;99.90
2453;DHT22;63678;47.994;7.854;2023-04-08T08:56:08;11.90;99.90
2453;DHT22;63678;47.994;7.854;2023-04-08T09:04:16;11.80;99.90
2453;DHT22;63678;47.994;7.854;2023-04-08T09:07:24;11.90;99.90
2453;DHT22;63678;47.994;7.854;2023-04-08T09:09:58;11.90;99.90
2453;DHT22;63678;47.994;7.854;2023-04-08T09:15:07;11.90;99.90
2453;DHT22;63678;47.994;7.854;2023-04-08T09:17:40;11.90;99.90
2453;DHT22;63678;47.994;7.854;2023-04-08T09:20:13;11.90;99.90
2453;DHT22;63678;47.994;7.854;2023-04-08T09:23:00;12.00;99.90
2453;DHT22;63678;47.994;7.854;2023-04-08T09:25:33;11.90;99.90
2453;DHT22;63678;47.994;7.854;2023-04-08T09:28:18;12.20;99.90
2453;DHT22;63678;47.994;7.854;2023-04-08T09:33:30;12.20;99.90
2453;DHT22;63678;47.994;7.854;2023-04-08T09:36:03;12.10;99.90
2453;DHT22;63678;47.994;7.854;2023-04-08T09:41:13;12.10;99.90
2453;DHT22;63678;47.994;7.854;2023-04-08T09:43:52;12.10;99.90
2453;DHT22;63678;47.994;7.854;2023-04-08T09:46:28;12.00;99.90
2453;DHT22;63678;47.994;7.854;2023-04-08T09:49:10;11.90;99.90
2453;DHT22;63678;47.994;7.854;2023-04-08T09:51:48;11.80;99.90
2453;DHT22;63678;47.994;7.854;2023-04-08T09:57:56;11.70;99.90
2453;DHT22;63678;47.994;7.854;2023-04-08T10:00:39;11.60;99.90
2453;DHT22;63678;47.994;7.854;2023-04-08T10:03:36;11.60;99.90
2453;DHT22;63678;47.994;7.854;2023-04-08T10:08:44;11.60;99.90
2453;DHT22;63678;47.994;7.854;2023-04-08T10:16:24;11.70;99.90
2453;DHT22;63678;47.994;7.854;2023-04-08T10:18:58;11.60;99.90
2453;DHT22;63678;47.994;7.854;2023-04-08T10:24:10;11.30;99.90
2453;DHT22;63678;47.994;7.854;2023-04-08T10:26:46;11.30;99.90
2453;DHT22;63678;47.994;7.854;2023-04-08T10:29:29;11.20;99.90
2453;DHT22;63678;47.994;7.854;2023-04-08T10:32:02;11.20;99.90
2453;DHT22;63678;47.994;7.854;2023-04-08T10:34:50;11.20;99.90
2453;DHT22;63678;47.994;7.854;2023-04-08T10:39:57;11.70;99.90
2453;DHT22;63678;47.994;7.854;2023-04-08T10:50:17;11.50;99.90
2453;DHT22;63678;47.994;7.854;2023-04-08T10:52:53;11.70;99.90
2453;DHT22;63678;47.994;7.854;2023-04-08T10:55:25;11.90;99.90
2453;DHT22;63678;47.994;7.854;2023-04-08T10:58:08;11.90;99.90
2453;DHT22;63678;47.994;7.854;2023-04-08T11:03:14;12.40;99.90
2453;DHT22;63678;47.994;7.854;2023-04-08T11:05:48;12.50;99.90
2453;DHT22;63678;47.994;7.854;2023-04-08T11:08:31;12.70;99.90
2453;DHT22;63678;47.994;7.854;2023-04-08T11:11:04;12.90;99.90
2453;DHT22;63678;47.994;7.854;2023-04-08T11:13:44;13.20;99.90
2453;DHT22;63678;47.994;7.854;2023-04-08T11:16:25;15.80;99.90
2453;DHT22;63678;47.994;7.854;2023-04-08T11:18:58;13.30;99.90
2453;DHT22;63678;47.994;7.854;2023-04-08T11:21:31;13.40;99.90
2453;DHT22;63678;47.994;7.854;2023-04-08T11:24:11;14.00;99.90
2453;DHT22;63678;47.994;7.854;2023-04-08T11:29:16;15.00;99.90
2453;DHT22;63678;47.994;7.854;2023-04-08T11:34:23;14.40;99.90
2453;DHT22;63678;47.994;7.854;2023-04-08T11:36:56;14.10;99.90
2453;DHT22;63678;47.994;7.854;2023-04-08T11:39:30;14.70;99.90
2453;DHT22;63678;47.994;7.854;2023-04-08T11:44:36;15.00;99.90
2453;DHT22;63678;47.994;7.854;2023-04-08T11:49:45;15.60;99.90
2453;DHT22;63678;47.994;7.854;2023-04-08T11:52:41;15.80;99.90
2453;DHT22;63678;47.994;7.854;2023-04-08T11:55:32;15.70;99.90
2453;DHT22;63678;47.994;7.854;2023-04-08T11:58:04;15.10;99.90
2453;DHT22;63678;47.994;7.854;2023-04-08T12:03:11;14.30;99.90
2453;DHT22;63678;47.994;7.854;2023-04-08T12:10:50;11.10;99.90
2453;DHT22;63678;47.994;7.854;2023-04-08T12:13:23;13.50;99.90
2453;DHT22;63678;47.994;7.854;2023-04-08T12:15:55;13.40;99.90
2453;DHT22;63678;47.994;7.854;2023-04-08T12:18:27;13.40;99.90
2453;DHT22;63678;47.994;7.854;2023-04-08T12:20:59;13.40;99.90
2453;DHT22;63678;47.994;7.854;2023-04-08T12:23:32;13.30;99.90
2453;DHT22;63678;47.994;7.854;2023-04-08T12:26:04;13.40;99.90
2453;DHT22;63678;47.994;7.854;2023-04-08T12:28:37;13.30;99.90
2453;DHT22;63678;47.994;7.854;2023-04-08T12:36:15;13.30;99.90
2453;DHT22;63678;47.994;7.854;2023-04-08T12:41:41;13.30;99.90
2453;DHT22;63678;47.994;7.854;2023-04-08T12:46:46;13.40;99.90
2453;DHT22;63678;47.994;7.854;2023-04-08T12:49:19;13.90;99.90
2453;DHT22;63678;47.994;7.854;2023-04-08T12:54:24;14.70;99.90
2453;DHT22;63678;47.994;7.854;2023-04-08T12:56:57;16.10;99.90
2453;DHT22;63678;47.994;7.854;2023-04-08T13:07:09;15.50;99.90
2453;DHT22;63678;47.994;7.854;2023-04-08T13:09:43;15.20;99.90
2453;DHT22;63678;47.994;7.854;2023-04-08T13:14:49;14.30;99.90
2453;DHT22;63678;47.994;7.854;2023-04-08T13:17:21;14.10;99.90
2453;DHT22;63678;47.994;7.854;2023-04-08T13:27:32;14.00;99.90
2453;DHT22;63678;47.994;7.854;2023-04-08T13:30:05;14.20;99.90
2453;DHT22;63678;47.994;7.854;2023-04-08T13:32:38;14.10;99.90
2453;DHT22;63678;47.994;7.854;2023-04-08T13:35:10;14.00;99.90
2453;DHT22;63678;47.994;7.854;2023-04-08T13:47:54;14.00;99.90
2453;DHT22;63678;47.994;7.854;2023-04-08T13:50:27;14.00;99.90
2453;DHT22;63678;47.994;7.854;2023-04-08T13:52:59;13.80;99.90
2453;DHT22;63678;47.994;7.854;2023-04-08T13:58:05;14.00;99.90
2453;DHT22;63678;47.994;7.854;2023-04-08T14:00:54;14.00;99.90
2453;DHT22;63678;47.994;7.854;2023-04-08T14:05:59;13.70;99.90
2453;DHT22;63678;47.994;7.854;2023-04-08T14:08:32;13.70;99.90
2453;DHT22;63678;47.994;7.854;2023-04-08T14:11:04;13.70;99.90
2453;DHT22;63678;47.994;7.854;2023-04-08T14:18:42;15.30;99.90
2453;DHT22;63678;47.994;7.854;2023-04-08T14:21:15;13.10;99.90
2453;DHT22;63678;47.994;7.854;2023-04-08T14:31:49;13.10;99.90
2453;DHT22;63678;47.994;7.854;2023-04-08T14:36:54;12.90;99.90
2453;DHT22;63678;47.994;7.854;2023-04-08T14:42:03;12.80;99.90
2453;DHT22;63678;47.994;7.854;2023-04-08T14:44:35;12.80;99.90
2453;DHT22;63678;47.994;7.854;2023-04-08T14:54:47;12.60;99.90
2453;DHT22;63678;47.994;7.854;2023-04-08T14:57:19;12.70;99.90
2453;DHT22;63678;47.994;7.854;2023-04-08T14:59:51;12.80;99.90
2453;DHT22;63678;47.994;7.854;2023-04-08T15:02:24;12.70;99.90
2453;DHT22;63678;47.994;7.854;2023-04-08T15:04:57;12.70;99.90
2453;DHT22;63678;47.994;7.854;2023-04-08T15:07:29;12.70;99.90
2453;DHT22;63678;47.994;7.854;2023-04-08T15:12:35;12.70;99.90
2453;DHT22;63678;47.994;7.854;2023-04-08T15:15:08;12.60;99.90
2453;DHT22;63678;47.994;7.854;2023-04-08T15:20:13;12.60;99.90
2453;DHT22;63678;47.994;7.854;2023-04-08T15:25:19;12.70;99.90
2453;DHT22;63678;47.994;7.854;2023-04-08T15:27:51;12.70;99.90
2453;DHT22;63678;47.994;7.854;2023-04-08T15:30:23;12.70;99.90
2453;DHT22;63678;47.994;7.854;2023-04-08T15:33:04;12.80;99.90
2453;DHT22;63678;47.994;7.854;2023-04-08T15:35:37;12.90;99.90
2453;DHT22;63678;47.994;7.854;2023-04-08T15:38:10;12.90;99.90
2453;DHT22;63678;47.994;7.854;2023-04-08T15:41:03;12.80;99.90
2453;DHT22;63678;47.994;7.854;2023-04-08T15:43:36;12.90;99.90
2453;DHT22;63678;47.994;7.854;2023-04-08T15:46:08;12.90;99.90
2453;DHT22;63678;47.994;7.854;2023-04-08T15:49:02;13.00;99.90
2453;DHT22;63678;47.994;7.854;2023-04-08T15:51:56;12.90;99.90
2453;DHT22;63678;47.994;7.854;2023-04-08T15:54:32;12.90;99.90
2453;DHT22;63678;47.994;7.854;2023-04-08T15:57:05;12.90;99.90
2453;DHT22;63678;47.994;7.854;2023-04-08T15:59:37;13.00;99.90
2453;DHT22;63678;47.994;7.854;2023-04-08T16:02:09;13.10;99.90
2453;DHT22;63678;47.994;7.854;2023-04-08T16:04:42;13.00;99.90
2453;DHT22;63678;47.994;7.854;2023-04-08T16:07:14;12.90;99.90
2453;DHT22;63678;47.994;7.854;2023-04-08T16:09:47;12.80;99.90
2453;DHT22;63678;47.994;7.854;2023-04-08T16:12:19;12.80;99.90
2453;DHT22;63678;47.994;7.854;2023-04-08T16:14:52;12.70;99.90
2453;DHT22;63678;47.994;7.854;2023-04-08T16:17:24;12.60;99.90
2453;DHT22;63678;47.994;7.854;2023-04-08T16:19:58;12.60;99.90
2453;DHT22;63678;47.994;7.854;2023-04-08T16:25:04;12.60;99.90
2453;DHT22;63678;47.994;7.854;2023-04-08T16:27:37;12.60;99.90
2453;DHT22;63678;47.994;7.854;2023-04-08T16:30:10;12.40;99.90
2453;DHT22;63678;47.994;7.854;2023-04-08T16:32:42;12.50;99.90
2453;DHT22;63678;47.994;7.854;2023-04-08T16:35:15;12.40;99.90
2453;DHT22;63678;47.994;7.854;2023-04-08T16:42:54;12.50;99.90
2453;DHT22;63678;47.994;7.854;2023-04-08T16:45:28;12.50;99.90
2453;DHT22;63678;47.994;7.854;2023-04-08T16:48:01;12.60;99.90
2453;DHT22;63678;47.994;7.854;2023-04-08T16:50:33;12.50;99.90
2453;DHT22;63678;47.994;7.854;2023-04-08T16:53:05;12.50;99.90
2453;DHT22;63678;47.994;7.854;2023-04-08T16:55:38;12.50;99.90
2453;DHT22;63678;47.994;7.854;2023-04-08T17:00:43;12.40;99.90
2453;DHT22;63678;47.994;7.854;2023-04-08T17:08:21;12.00;99.90
2453;DHT22;63678;47.994;7.854;2023-04-08T17:11:07;12.00;99.90
2453;DHT22;63678;47.994;7.854;2023-04-08T17:16:19;11.90;99.90
2453;DHT22;63678;47.994;7.854;2023-04-08T17:18:54;11.90;99.90
2453;DHT22;63678;47.994;7.854;2023-04-08T17:24:21;12.00;99.90
2453;DHT22;63678;47.994;7.854;2023-04-08T17:26:53;12.00;99.90
2453;DHT22;63678;47.994;7.854;2023-04-08T17:32:00;12.00;99.90
2453;DHT22;63678;47.994;7.854;2023-04-08T17:34:32;11.90;99.90
2453;DHT22;63678;47.994;7.854;2023-04-08T17:45:06;11.70;99.90
2453;DHT22;63678;47.994;7.854;2023-04-08T17:47:41;11.60;99.90
2453;DHT22;63678;47.994;7.854;2023-04-08T17:50:35;11.60;99.90
2453;DHT22;63678;47.994;7.854;2023-04-08T17:53:07;11.60;99.90
2453;DHT22;63678;47.994;7.854;2023-04-08T17:55:39;11.60;99.90
2453;DHT22;63678;47.994;7.854;2023-04-08T17:58:11;11.60;99.90
2453;DHT22;63678;47.994;7.854;2023-04-08T18:00:44;11.60;99.90
2453;DHT22;63678;47.994;7.854;2023-04-08T18:03:18;11.70;99.90
2453;DHT22;63678;47.994;7.854;2023-04-08T18:05:51;10.50;99.90
2453;DHT22;63678;47.994;7.854;2023-04-08T18:08:26;11.70;99.90
2453;DHT22;63678;47.994;7.854;2023-04-08T18:10:58;11.70;99.90
2453;DHT22;63678;47.994;7.854;2023-04-08T18:13:30;11.70;99.90
2453;DHT22;63678;47.994;7.854;2023-04-08T18:16:13;11.60;99.90
2453;DHT22;63678;47.994;7.854;2023-04-08T18:18:46;11.60;99.90
2453;DHT22;63678;47.994;7.854;2023-04-08T18:21:19;11.50;99.90
2453;DHT22;63678;47.994;7.854;2023-04-08T18:23:53;11.70;99.90
2453;DHT22;63678;47.994;7.854;2023-04-08T18:29:02;12.50;99.90
2453;DHT22;63678;47.994;7.854;2023-04-08T18:31:35;12.10;99.90
2453;DHT22;63678;47.994;7.854;2023-04-08T18:34:07;11.90;99.90
2453;DHT22;63678;47.994;7.854;2023-04-08T18:36:39;11.80;99.90
2453;DHT22;63678;47.994;7.854;2023-04-08T18:39:12;11.60;99.90
2453;DHT22;63678;47.994;7.854;2023-04-08T18:41:44;11.50;99.90
2453;DHT22;63678;47.994;7.854;2023-04-08T18:44:17;11.50;99.90
2453;DHT22;63678;47.994;7.854;2023-04-08T18:46:49;11.40;99.90
2453;DHT22;63678;47.994;7.854;2023-04-08T18:54:33;11.40;99.90
2453;DHT22;63678;47.994;7.854;2023-04-08T18:57:05;11.40;99.90
2453;DHT22;63678;47.994;7.854;2023-04-08T19:02:10;11.30;99.90
2453;DHT22;63678;47.994;7.854;2023-04-08T19:04:43;11.30;99.90
2453;DHT22;63678;47.994;7.854;2023-04-08T19:07:15;11.20;99.90
2453;DHT22;63678;47.994;7.854;2023-04-08T19:12:24;11.10;99.90
2453;DHT22;63678;47.994;7.854;2023-04-08T19:14:57;11.10;99.90
2453;DHT22;63678;47.994;7.854;2023-04-08T19:17:30;11.10;99.90
2453;DHT22;63678;47.994;7.854;2023-04-08T19:20:02;11.10;99.90
2453;DHT22;63678;47.994;7.854;2023-04-08T19:22:35;11.00;99.90
2453;DHT22;63678;47.994;7.854;2023-04-08T19:25:08;11.00;99.90
2453;DHT22;63678;47.994;7.854;2023-04-08T19:27:40;11.10;99.90
2453;DHT22;63678;47.994;7.854;2023-04-08T19:32:46;11.10;99.90
2453;DHT22;63678;47.994;7.854;2023-04-08T19:35:19;11.00;99.90
2453;DHT22;63678;47.994;7.854;2023-04-08T19:37:52;10.90;99.90
2453;DHT22;63678;47.994;7.854;2023-04-08T19:40:24;10.90;99.90
2453;DHT22;63678;47.994;7.854;2023-04-08T19:42:57;10.80;99.90
2453;DHT22;63678;47.994;7.854;2023-04-08T19:50:37;10.70;99.90
2453;DHT22;63678;47.994;7.854;2023-04-08T19:53:10;10.70;99.90
2453;DHT22;63678;47.994;7.854;2023-04-08T19:55:42;10.60;99.90
2453;DHT22;63678;47.994;7.854;2023-04-08T19:58:15;10.50;99.90
2453;DHT22;63678;47.994;7.854;2023-04-08T20:00:47;10.40;99.90
2453;DHT22;63678;47.994;7.854;2023-04-08T20:03:20;10.40;99.90
2453;DHT22;63678;47.994;7.854;2023-04-08T20:05:53;10.40;99.90
2453;DHT22;63678;47.994;7.854;2023-04-08T20:08:26;10.30;99.90
2453;DHT22;63678;47.994;7.854;2023-04-08T20:11:00;10.30;99.90
2453;DHT22;63678;47.994;7.854;2023-04-08T20:16:08;10.20;99.90
2453;DHT22;63678;47.994;7.854;2023-04-08T20:18:40;10.10;99.90
2453;DHT22;63678;47.994;7.854;2023-04-08T20:21:13;10.10;99.90
2453;DHT22;63678;47.994;7.854;2023-04-08T20:23:45;10.10;99.90
2453;DHT22;63678;47.994;7.854;2023-04-08T20:28:52;10.00;99.90
2453;DHT22;63678;47.994;7.854;2023-04-08T20:36:35;9.80;99.90
2453;DHT22;63678;47.994;7.854;2023-04-08T20:41:42;9.80;99.90
2453;DHT22;63678;47.994;7.854;2023-04-08T20:44:15;9.80;99.90
2453;DHT22;63678;47.994;7.854;2023-04-08T20:46:48;9.70;99.90
2453;DHT22;63678;47.994;7.854;2023-04-08T20:54:26;9.70;99.90
2453;DHT22;63678;47.994;7.854;2023-04-08T20:59:37;9.70;99.90
2453;DHT22;63678;47.994;7.854;2023-04-08T21:02:13;9.70;99.90
2453;DHT22;63678;47.994;7.854;2023-04-08T21:04:56;9.70;99.90
2453;DHT22;63678;47.994;7.854;2023-04-08T21:07:29;9.60;99.90
2453;DHT22;63678;47.994;7.854;2023-04-08T21:10:02;9.60;99.90
2453;DHT22;63678;47.994;7.854;2023-04-08T21:15:10;9.60;99.90
2453;DHT22;63678;47.994;7.854;2023-04-08T21:20:16;9.60;99.90
2453;DHT22;63678;47.994;7.854;2023-04-08T21:22:48;9.60;99.90
2453;DHT22;63678;47.994;7.854;2023-04-08T21:25:22;9.50;99.90
2453;DHT22;63678;47.994;7.854;2023-04-08T21:27:55;9.60;99.90
2453;DHT22;63678;47.994;7.854;2023-04-08T21:30:46;9.50;99.90
2453;DHT22;63678;47.994;7.854;2023-04-08T21:33:19;9.50;99.90
2453;DHT22;63678;47.994;7.854;2023-04-08T21:35:52;9.50;99.90